RSC67TW GCFV-GCXO
Flight info
| Callsign | RSC67TW |
|---|---|
| Flight time | 0h 45m |
| Altitude | 17000 |
| Route | LARYS |
| Aircraft | AT76/M-SDFGRY/LB1 |
Departure
| Time | 2026-05-04 19:35 |
|---|---|
| Airport | Fuerteventura Airport (GCFV) |
Arrival
| Time | 2026-05-04 20:20 |
|---|---|
| Airport | Tenerife Norte-Ciudad de La Laguna Airport (GCXO) |
| Time | Latitude | Longitude | Altitude | Speed | Heading |
|---|---|---|---|---|---|
| 2026-05-04 19:06 | 28.45616 | -13.86644 | 95 ft | 0 kts | 274° |
| 2026-05-04 19:12 | 27.93536 | -15.38784 | 95 ft | 0 kts | 291° |
| 2026-05-04 19:13 | 28.45616 | -13.86655 | 96 ft | 0 kts | 271° |
| 2026-05-04 19:29 | 28.45616 | -13.86672 | 96 ft | 4 kts | 271° |
| 2026-05-04 19:29 | 28.45612 | -13.86716 | 95 ft | 6 kts | 236° |
| 2026-05-04 19:29 | 28.45555 | -13.86729 | 95 ft | 10 kts | 182° |
| 2026-05-04 19:30 | 28.45455 | -13.86733 | 95 ft | 18 kts | 182° |
| 2026-05-04 19:30 | 28.45310 | -13.86737 | 95 ft | 24 kts | 184° |
| 2026-05-04 19:30 | 28.45138 | -13.86740 | 95 ft | 24 kts | 167° |
| 2026-05-04 19:30 | 28.45089 | -13.86602 | 95 ft | 17 kts | 124° |
| 2026-05-04 19:31 | 28.44970 | -13.86580 | 95 ft | 18 kts | 181° |
| 2026-05-04 19:31 | 28.44841 | -13.86583 | 87 ft | 17 kts | 182° |
| 2026-05-04 19:31 | 28.44705 | -13.86588 | 73 ft | 30 kts | 181° |
| 2026-05-04 19:31 | 28.44513 | -13.86595 | 67 ft | 27 kts | 181° |
| 2026-05-04 19:32 | 28.44329 | -13.86601 | 58 ft | 24 kts | 181° |
| 2026-05-04 19:32 | 28.44160 | -13.86604 | 52 ft | 25 kts | 180° |
| 2026-05-04 19:32 | 28.43985 | -13.86609 | 48 ft | 26 kts | 187° |
| 2026-05-04 19:32 | 28.43801 | -13.86616 | 41 ft | 27 kts | 180° |
| 2026-05-04 19:33 | 28.43616 | -13.86623 | 37 ft | 27 kts | 181° |
| 2026-05-04 19:33 | 28.43433 | -13.86625 | 32 ft | 26 kts | 184° |
| 2026-05-04 19:33 | 28.43363 | -13.86544 | 30 ft | 16 kts | 58° |
| 2026-05-04 19:33 | 28.43418 | -13.86458 | 30 ft | 17 kts | 51° |
| 2026-05-04 19:34 | 28.43585 | -13.86430 | 29 ft | 44 kts | 1° |
| 2026-05-04 19:34 | 28.44088 | -13.86414 | 35 ft | 97 kts | 1° |
| 2026-05-04 19:34 | 28.44860 | -13.86406 | 242 ft | 115 kts | 356° |
| 2026-05-04 19:34 | 28.45663 | -13.86408 | 674 ft | 116 kts | 359° |
| 2026-05-04 19:35 | 28.46462 | -13.86316 | 1191 ft | 114 kts | 12° |
| 2026-05-04 19:35 | 28.47302 | -13.86095 | 1261 ft | 138 kts | 15° |
| 2026-05-04 19:35 | 28.48279 | -13.85790 | 1492 ft | 147 kts | 19° |
| 2026-05-04 19:35 | 28.49182 | -13.85290 | 1918 ft | 146 kts | 33° |
| 2026-05-04 19:36 | 28.50014 | -13.84603 | 2202 ft | 149 kts | 41° |
| 2026-05-04 19:36 | 28.50757 | -13.83757 | 2492 ft | 153 kts | 45° |
| 2026-05-04 19:36 | 28.51484 | -13.82861 | 2812 ft | 156 kts | 46° |
| 2026-05-04 19:36 | 28.52231 | -13.81945 | 3132 ft | 157 kts | 42° |
| 2026-05-04 19:37 | 28.53105 | -13.81223 | 3478 ft | 156 kts | 30° |
| 2026-05-04 19:37 | 28.54033 | -13.80589 | 3777 ft | 159 kts | 28° |
| 2026-05-04 19:37 | 28.55018 | -13.79966 | 4051 ft | 164 kts | 26° |
| 2026-05-04 19:37 | 28.56037 | -13.79349 | 4333 ft | 167 kts | 23° |
| 2026-05-04 19:38 | 28.57077 | -13.78748 | 4640 ft | 169 kts | 22° |
| 2026-05-04 19:38 | 28.58132 | -13.78129 | 4928 ft | 172 kts | 22° |
| 2026-05-04 19:38 | 28.59208 | -13.77528 | 5201 ft | 175 kts | 22° |
| 2026-05-04 19:38 | 28.60308 | -13.76967 | 5495 ft | 173 kts | 12° |
| 2026-05-04 19:39 | 28.61433 | -13.77132 | 5764 ft | 164 kts | 321° |
| 2026-05-04 19:39 | 28.62088 | -13.78157 | 5992 ft | 163 kts | 290° |
| 2026-05-04 19:39 | 28.62438 | -13.79404 | 6181 ft | 170 kts | 283° |
| 2026-05-04 19:39 | 28.62656 | -13.80766 | 6364 ft | 177 kts | 280° |
| 2026-05-04 19:40 | 28.62831 | -13.82154 | 6630 ft | 177 kts | 278° |
| 2026-05-04 19:40 | 28.62984 | -13.83552 | 6904 ft | 177 kts | 277° |
| 2026-05-04 19:40 | 28.63127 | -13.84936 | 7193 ft | 176 kts | 277° |
| 2026-05-04 19:40 | 28.63266 | -13.86320 | 7449 ft | 176 kts | 277° |
| 2026-05-04 19:41 | 28.63405 | -13.87709 | 7684 ft | 178 kts | 277° |
| 2026-05-04 19:41 | 28.63506 | -13.89114 | 7946 ft | 178 kts | 266° |
| 2026-05-04 19:41 | 28.63271 | -13.90498 | 8189 ft | 179 kts | 255° |
| 2026-05-04 19:41 | 28.62827 | -13.91823 | 8434 ft | 180 kts | 249° |
| 2026-05-04 19:42 | 28.62314 | -13.93125 | 8694 ft | 180 kts | 248° |
| 2026-05-04 19:42 | 28.61779 | -13.94413 | 8965 ft | 180 kts | 248° |
| 2026-05-04 19:42 | 28.61233 | -13.95696 | 9227 ft | 180 kts | 247° |
| 2026-05-04 19:42 | 28.60686 | -13.96959 | 9484 ft | 180 kts | 247° |
| 2026-05-04 19:43 | 28.60081 | -13.98211 | 9733 ft | 182 kts | 238° |
| 2026-05-04 19:43 | 28.59280 | -13.99336 | 9982 ft | 183 kts | 233° |
| 2026-05-04 19:43 | 28.58439 | -14.00423 | 10218 ft | 183 kts | 232° |
| 2026-05-04 19:43 | 28.57586 | -14.01494 | 10457 ft | 182 kts | 232° |
| 2026-05-04 19:44 | 28.56724 | -14.02557 | 10691 ft | 182 kts | 232° |
| 2026-05-04 19:44 | 28.55863 | -14.03613 | 10924 ft | 182 kts | 232° |
| 2026-05-04 19:44 | 28.55003 | -14.04665 | 11142 ft | 181 kts | 231° |
| 2026-05-04 19:44 | 28.54087 | -14.05646 | 11389 ft | 182 kts | 222° |
| 2026-05-04 19:45 | 28.52991 | -14.06387 | 11601 ft | 185 kts | 211° |
| 2026-05-04 19:45 | 28.51795 | -14.06946 | 11831 ft | 187 kts | 208° |
| 2026-05-04 19:45 | 28.50550 | -14.07459 | 11948 ft | 195 kts | 203° |
| 2026-05-04 19:45 | 28.49199 | -14.07817 | 12011 ft | 205 kts | 199° |
| 2026-05-04 19:46 | 28.47767 | -14.08133 | 12028 ft | 214 kts | 198° |
| 2026-05-04 19:46 | 28.46276 | -14.08439 | 12043 ft | 220 kts | 197° |
| 2026-05-04 19:46 | 28.44750 | -14.08746 | 12057 ft | 226 kts | 197° |
| 2026-05-04 19:46 | 28.43181 | -14.09070 | 12055 ft | 231 kts | 197° |
| 2026-05-04 19:47 | 28.41647 | -14.09521 | 12061 ft | 223 kts | 214° |
| 2026-05-04 19:47 | 28.40664 | -14.10782 | 12064 ft | 216 kts | 251° |
| 2026-05-04 19:47 | 28.40437 | -14.12472 | 12062 ft | 219 kts | 264° |
| 2026-05-04 19:47 | 28.40354 | -14.14208 | 12049 ft | 222 kts | 266° |
| 2026-05-04 19:48 | 28.40312 | -14.15966 | 12054 ft | 223 kts | 267° |
| 2026-05-04 19:48 | 28.40395 | -14.17731 | 12051 ft | 225 kts | 274° |
| 2026-05-04 19:48 | 28.40610 | -14.19478 | 12053 ft | 227 kts | 276° |
| 2026-05-04 19:48 | 28.40867 | -14.21247 | 12056 ft | 227 kts | 276° |
| 2026-05-04 19:49 | 28.41144 | -14.23025 | 12058 ft | 228 kts | 277° |
| 2026-05-04 19:49 | 28.41430 | -14.24807 | 12060 ft | 229 kts | 277° |
| 2026-05-04 19:49 | 28.41720 | -14.26590 | 12061 ft | 230 kts | 277° |
| 2026-05-04 19:49 | 28.42013 | -14.28377 | 12062 ft | 231 kts | 277° |
| 2026-05-04 19:50 | 28.42306 | -14.30170 | 12058 ft | 231 kts | 277° |
| 2026-05-04 19:50 | 28.42599 | -14.31962 | 12057 ft | 232 kts | 276° |
| 2026-05-04 19:50 | 28.42831 | -14.33772 | 12056 ft | 231 kts | 274° |
| 2026-05-04 19:50 | 28.43024 | -14.35578 | 12057 ft | 230 kts | 273° |
| 2026-05-04 19:51 | 28.43172 | -14.37390 | 12062 ft | 230 kts | 272° |
| 2026-05-04 19:51 | 28.43297 | -14.39205 | 12064 ft | 230 kts | 271° |
| 2026-05-04 19:51 | 28.43411 | -14.41017 | 12063 ft | 230 kts | 271° |
| 2026-05-04 19:51 | 28.43521 | -14.42828 | 12062 ft | 230 kts | 271° |
| 2026-05-04 19:52 | 28.43649 | -14.44645 | 12062 ft | 231 kts | 272° |
| 2026-05-04 19:52 | 28.43799 | -14.46457 | 12059 ft | 231 kts | 272° |
| 2026-05-04 19:52 | 28.43959 | -14.48269 | 12061 ft | 231 kts | 273° |
| 2026-05-04 19:52 | 28.44110 | -14.50084 | 12061 ft | 230 kts | 272° |
| 2026-05-04 19:53 | 28.44253 | -14.51895 | 12066 ft | 230 kts | 272° |
| 2026-05-04 19:53 | 28.44390 | -14.53709 | 12066 ft | 230 kts | 272° |
| 2026-05-04 19:53 | 28.44526 | -14.55527 | 12065 ft | 230 kts | 272° |
| 2026-05-04 19:53 | 28.44662 | -14.57339 | 12066 ft | 230 kts | 272° |
| 2026-05-04 19:54 | 28.44802 | -14.59153 | 12071 ft | 231 kts | 272° |
| 2026-05-04 19:54 | 28.44941 | -14.60970 | 12072 ft | 231 kts | 272° |
| 2026-05-04 19:54 | 28.45081 | -14.62794 | 12075 ft | 232 kts | 272° |
| 2026-05-04 19:54 | 28.45218 | -14.64596 | 12078 ft | 232 kts | 272° |
| 2026-05-04 19:55 | 28.45356 | -14.66420 | 12073 ft | 232 kts | 272° |
| 2026-05-04 19:55 | 28.45492 | -14.68249 | 12072 ft | 232 kts | 272° |
| 2026-05-04 19:55 | 28.45629 | -14.70074 | 12072 ft | 232 kts | 272° |
| 2026-05-04 19:55 | 28.45764 | -14.71923 | 12073 ft | 237 kts | 271° |
| 2026-05-04 19:56 | 28.45900 | -14.73814 | 12071 ft | 242 kts | 272° |
| 2026-05-04 19:56 | 28.46039 | -14.75750 | 12071 ft | 251 kts | 272° |
| 2026-05-04 19:56 | 28.46185 | -14.77726 | 12071 ft | 251 kts | 272° |
| 2026-05-04 19:56 | 28.46329 | -14.79710 | 12071 ft | 255 kts | 272° |
| 2026-05-04 19:57 | 28.46470 | -14.81757 | 12075 ft | 263 kts | 272° |
| 2026-05-04 19:57 | 28.46613 | -14.83857 | 12074 ft | 270 kts | 272° |
| 2026-05-04 19:57 | 28.46759 | -14.85998 | 12073 ft | 274 kts | 272° |
| 2026-05-04 19:57 | 28.46907 | -14.88151 | 12072 ft | 270 kts | 272° |
| 2026-05-04 19:58 | 28.47055 | -14.90262 | 12070 ft | 266 kts | 272° |
| 2026-05-04 19:58 | 28.47199 | -14.92356 | 12070 ft | 264 kts | 272° |
| 2026-05-04 19:58 | 28.47341 | -14.94418 | 12074 ft | 261 kts | 271° |
| 2026-05-04 19:58 | 28.47488 | -14.96475 | 12069 ft | 260 kts | 271° |
| 2026-05-04 19:59 | 28.47634 | -14.98515 | 12069 ft | 258 kts | 272° |
| 2026-05-04 19:59 | 28.47781 | -15.00541 | 12068 ft | 257 kts | 271° |
| 2026-05-04 19:59 | 28.47927 | -15.02554 | 12068 ft | 255 kts | 272° |
| 2026-05-04 19:59 | 28.48072 | -15.04559 | 12069 ft | 254 kts | 271° |
| 2026-05-04 20:00 | 28.48217 | -15.06559 | 12070 ft | 254 kts | 271° |
| 2026-05-04 20:00 | 28.48361 | -15.08561 | 12073 ft | 255 kts | 271° |
| 2026-05-04 20:00 | 28.48505 | -15.10570 | 12073 ft | 255 kts | 271° |
| 2026-05-04 20:00 | 28.48646 | -15.12551 | 12073 ft | 255 kts | 271° |
| 2026-05-04 20:01 | 28.48792 | -15.14559 | 12070 ft | 255 kts | 271° |
| 2026-05-04 20:01 | 28.48935 | -15.16565 | 12070 ft | 255 kts | 271° |
| 2026-05-04 20:01 | 28.49079 | -15.18570 | 12069 ft | 254 kts | 271° |
| 2026-05-04 20:01 | 28.49222 | -15.20574 | 12069 ft | 254 kts | 271° |
| 2026-05-04 20:02 | 28.49365 | -15.22574 | 12071 ft | 254 kts | 271° |
| 2026-05-04 20:02 | 28.49507 | -15.24581 | 12070 ft | 254 kts | 271° |
| 2026-05-04 20:02 | 28.49649 | -15.26575 | 12070 ft | 254 kts | 271° |
| 2026-05-04 20:02 | 28.49791 | -15.28576 | 12068 ft | 254 kts | 271° |
| 2026-05-04 20:03 | 28.49935 | -15.30581 | 12071 ft | 254 kts | 271° |
| 2026-05-04 20:03 | 28.50075 | -15.32593 | 12073 ft | 255 kts | 271° |
| 2026-05-04 20:03 | 28.50218 | -15.34605 | 12073 ft | 255 kts | 271° |
| 2026-05-04 20:03 | 28.50359 | -15.36616 | 12075 ft | 255 kts | 271° |
| 2026-05-04 20:04 | 28.50499 | -15.38599 | 12072 ft | 255 kts | 271° |
| 2026-05-04 20:04 | 28.50640 | -15.40605 | 12072 ft | 254 kts | 271° |
| 2026-05-04 20:04 | 28.50783 | -15.42610 | 12072 ft | 254 kts | 271° |
| 2026-05-04 20:04 | 28.50923 | -15.44605 | 12073 ft | 254 kts | 271° |
| 2026-05-04 20:05 | 28.51062 | -15.46610 | 12077 ft | 254 kts | 271° |
| 2026-05-04 20:05 | 28.51201 | -15.48612 | 12076 ft | 254 kts | 271° |
| 2026-05-04 20:05 | 28.51337 | -15.50615 | 12074 ft | 254 kts | 271° |
| 2026-05-04 20:05 | 28.51476 | -15.52616 | 12074 ft | 254 kts | 271° |
| 2026-05-04 20:06 | 28.51614 | -15.54614 | 12074 ft | 254 kts | 271° |
| 2026-05-04 20:06 | 28.51750 | -15.56621 | 12073 ft | 255 kts | 271° |
| 2026-05-04 20:06 | 28.51881 | -15.58637 | 12076 ft | 255 kts | 271° |
| 2026-05-04 20:06 | 28.51947 | -15.59973 | 12076 ft | 254 kts | 270° |
| 2026-05-04 20:07 | 28.52032 | -15.61976 | 12075 ft | 254 kts | 270° |
| 2026-05-04 20:07 | 28.52133 | -15.64658 | 11805 ft | 263 kts | 269° |
| 2026-05-04 20:07 | 28.52206 | -15.66777 | 11440 ft | 271 kts | 269° |
| 2026-05-04 20:07 | 28.51896 | -15.68859 | 11079 ft | 270 kts | 244° |
| 2026-05-04 20:08 | 28.50649 | -15.70443 | 10778 ft | 272 kts | 214° |
| 2026-05-04 20:08 | 28.49508 | -15.71084 | 10638 ft | 269 kts | 206° |
| 2026-05-04 20:08 | 28.47781 | -15.71880 | 10430 ft | 268 kts | 204° |
| 2026-05-04 20:08 | 28.46036 | -15.72625 | 10224 ft | 268 kts | 203° |
| 2026-05-04 20:09 | 28.44309 | -15.73340 | 9823 ft | 254 kts | 203° |
| 2026-05-04 20:09 | 28.42715 | -15.73999 | 9300 ft | 234 kts | 202° |
| 2026-05-04 20:09 | 28.41233 | -15.74603 | 8788 ft | 221 kts | 202° |
| 2026-05-04 20:09 | 28.39750 | -15.75192 | 8289 ft | 231 kts | 202° |
| 2026-05-04 20:10 | 28.38203 | -15.75804 | 7811 ft | 240 kts | 202° |
| 2026-05-04 20:10 | 28.36638 | -15.76437 | 7431 ft | 241 kts | 204° |
| 2026-05-04 20:10 | 28.35336 | -15.77498 | 7254 ft | 229 kts | 236° |
| 2026-05-04 20:10 | 28.34492 | -15.79054 | 7165 ft | 236 kts | 241° |
| 2026-05-04 20:11 | 28.33685 | -15.80699 | 7119 ft | 241 kts | 243° |
| 2026-05-04 20:11 | 28.32894 | -15.82389 | 7097 ft | 244 kts | 244° |
| 2026-05-04 20:11 | 28.32335 | -15.84164 | 7088 ft | 239 kts | 266° |
| 2026-05-04 20:11 | 28.32601 | -15.86012 | 7083 ft | 239 kts | 287° |
| 2026-05-04 20:12 | 28.33162 | -15.87794 | 7079 ft | 242 kts | 289° |
| 2026-05-04 20:12 | 28.33770 | -15.89581 | 7081 ft | 243 kts | 290° |
| 2026-05-04 20:12 | 28.34374 | -15.91381 | 7071 ft | 245 kts | 289° |
| 2026-05-04 20:12 | 28.34921 | -15.93242 | 6843 ft | 249 kts | 287° |
| 2026-05-04 20:13 | 28.35449 | -15.95112 | 6609 ft | 248 kts | 287° |
| 2026-05-04 20:13 | 28.35955 | -15.96983 | 6367 ft | 248 kts | 287° |
| 2026-05-04 20:13 | 28.36488 | -15.98840 | 6127 ft | 246 kts | 290° |
| 2026-05-04 20:13 | 28.37092 | -16.00636 | 5873 ft | 241 kts | 292° |
| 2026-05-04 20:14 | 28.37701 | -16.02383 | 5632 ft | 236 kts | 292° |
| 2026-05-04 20:14 | 28.38285 | -16.04116 | 5381 ft | 234 kts | 292° |
| 2026-05-04 20:14 | 28.38853 | -16.05836 | 5155 ft | 232 kts | 292° |
| 2026-05-04 20:14 | 28.39415 | -16.07544 | 4920 ft | 231 kts | 292° |
| 2026-05-04 20:15 | 28.39975 | -16.09253 | 4660 ft | 229 kts | 293° |
| 2026-05-04 20:15 | 28.40535 | -16.10935 | 4443 ft | 227 kts | 293° |
| 2026-05-04 20:15 | 28.41092 | -16.12590 | 4354 ft | 220 kts | 294° |
| 2026-05-04 20:15 | 28.41625 | -16.14193 | 4320 ft | 214 kts | 293° |
| 2026-05-04 20:16 | 28.42153 | -16.15802 | 4295 ft | 222 kts | 293° |
| 2026-05-04 20:16 | 28.42709 | -16.17466 | 4294 ft | 229 kts | 294° |
| 2026-05-04 20:16 | 28.43282 | -16.19146 | 4286 ft | 221 kts | 294° |
| 2026-05-04 20:16 | 28.43808 | -16.20727 | 4271 ft | 207 kts | 293° |
| 2026-05-04 20:17 | 28.44294 | -16.22239 | 3975 ft | 197 kts | 293° |
| 2026-05-04 20:17 | 28.44752 | -16.23618 | 3743 ft | 180 kts | 295° |
| 2026-05-04 20:17 | 28.45191 | -16.24895 | 3509 ft | 165 kts | 294° |
| 2026-05-04 20:17 | 28.45581 | -16.26068 | 3305 ft | 152 kts | 294° |
| 2026-05-04 20:18 | 28.45908 | -16.27107 | 3120 ft | 131 kts | 296° |
| 2026-05-04 20:18 | 28.46208 | -16.28029 | 2927 ft | 120 kts | 296° |
| 2026-05-04 20:18 | 28.46502 | -16.28920 | 2775 ft | 125 kts | 296° |
| 2026-05-04 20:18 | 28.46828 | -16.29867 | 2606 ft | 132 kts | 296° |
| 2026-05-04 20:19 | 28.47171 | -16.30818 | 2430 ft | 129 kts | 294° |
| 2026-05-04 20:19 | 28.47483 | -16.31756 | 2228 ft | 124 kts | 290° |
| 2026-05-04 20:19 | 28.47785 | -16.32689 | 2059 ft | 126 kts | 288° |
| 2026-05-04 20:19 | 28.48063 | -16.33543 | 2041 ft | 96 kts | 291° |
| 2026-05-04 20:20 | 28.48199 | -16.33947 | 2044 ft | 38 kts | 291° |
| 2026-05-04 20:20 | 28.48320 | -16.34163 | 2050 ft | 28 kts | 321° |
| 2026-05-04 20:20 | 28.48368 | -16.34207 | 2048 ft | 0 kts | 320° |
| 2026-05-04 20:21 | 28.48385 | -16.34223 | 2049 ft | 5 kts | 320° |
| 2026-05-04 20:21 | 28.48432 | -16.34303 | 2051 ft | 7 kts | 292° |
| 2026-05-04 20:22 | 28.48450 | -16.34352 | 2053 ft | 7 kts | 292° |
| 2026-05-04 20:22 | 28.48469 | -16.34405 | 2055 ft | 7 kts | 292° |
| 2026-05-04 20:22 | 28.48489 | -16.34459 | 2058 ft | 8 kts | 292° |
| 2026-05-04 20:22 | 28.48504 | -16.34514 | 2060 ft | 8 kts | 286° |
| 2026-05-04 20:23 | 28.48521 | -16.34574 | 2064 ft | 7 kts | 288° |
| 2026-05-04 20:23 | 28.48536 | -16.34621 | 2066 ft | 6 kts | 291° |
| 2026-05-04 20:23 | 28.48548 | -16.34640 | 2067 ft | 2 kts | 333° |
| 2026-05-04 20:23 | 28.48601 | -16.34658 | 2067 ft | 14 kts | 3° |
| 2026-05-04 20:24 | 28.48664 | -16.34631 | 2066 ft | 0 kts | 21° |